createdAt,value
2022-08-19T00:00:29.720Z,95076.1
2022-08-19T00:01:32.025Z,95080.8
2022-08-19T00:03:43.987Z,95091.9
2022-08-19T00:04:46.306Z,95094.5
2022-08-19T00:05:48.299Z,95092.5
2022-08-19T00:06:50.769Z,95090.2
2022-08-19T00:07:53.237Z,95080.6
2022-08-19T00:08:55.734Z,95074.9
2022-08-19T00:09:58.653Z,95084.5
2022-08-19T00:11:01.135Z,95088.5
2022-08-19T00:12:03.598Z,95093.3
2022-08-19T00:13:06.127Z,95092.5
2022-08-19T00:14:08.599Z,95098.7
2022-08-19T00:16:16.074Z,95092.7
2022-08-19T00:17:18.274Z,95083.8
2022-08-19T00:18:20.464Z,95082.5
2022-08-19T00:19:22.942Z,95079.2
2022-08-19T00:20:25.128Z,95074.9
2022-08-19T00:21:27.066Z,95073.5
2022-08-19T00:22:29.565Z,95070.1
2022-08-19T00:23:32.048Z,95065
2022-08-19T00:24:35.983Z,95059.5
2022-08-19T00:25:39.105Z,95059.3
2022-08-19T00:26:41.993Z,95055.2
2022-08-19T00:27:44.470Z,95052.4
2022-08-19T00:28:46.669Z,95050.3
2022-08-19T00:30:53.618Z,95047.6
2022-08-19T00:31:56.100Z,95049.8
2022-08-19T00:32:57.772Z,95046.5
2022-08-19T00:34:00.251Z,95049.4
2022-08-19T00:35:02.732Z,95048.3
2022-08-19T00:36:05.214Z,95049.9
2022-08-19T00:37:09.456Z,95044.3
2022-08-19T00:38:11.963Z,95048.7
2022-08-19T00:39:14.430Z,95050.2
2022-08-19T00:40:16.631Z,95055.1
2022-08-19T00:41:19.101Z,95052.3
2022-08-19T00:42:21.590Z,95059.2
2022-08-19T00:43:23.776Z,95057.7
2022-08-19T00:44:28.217Z,95053.5
2022-08-19T00:45:32.597Z,95051
2022-08-19T00:46:39.065Z,95046.6
2022-08-19T00:47:41.538Z,95042.9
2022-08-19T00:48:44.010Z,95040.8
2022-08-19T00:49:46.526Z,95032.3
2022-08-19T00:51:55.142Z,95028.1
2022-08-19T00:52:57.628Z,95024
2022-08-19T00:53:59.816Z,95023.6
2022-08-19T00:55:02.302Z,95018.8
2022-08-19T00:56:04.770Z,95023.1
2022-08-19T00:57:07.276Z,95017.8
2022-08-19T00:58:09.768Z,95018.5
2022-08-19T00:59:12.327Z,95022.1
2022-08-19T01:00:14.521Z,95016.1
2022-08-19T01:01:17.156Z,95019.7
2022-08-19T01:02:18.891Z,95021.6
2022-08-19T01:03:21.106Z,95023
2022-08-19T01:04:23.581Z,95029
2022-08-19T01:05:26.064Z,95031.5
2022-08-19T01:06:28.284Z,95030.6
2022-08-19T01:08:35.758Z,95033.2
2022-08-19T01:09:37.973Z,95028.6
2022-08-19T01:10:40.447Z,95020.5
2022-08-19T01:11:42.635Z,95014.3
2022-08-19T01:12:44.837Z,95011.5
2022-08-19T01:14:52.007Z,95003.7
2022-08-19T01:15:54.220Z,94999.2
2022-08-19T01:16:56.114Z,95008
2022-08-19T01:17:58.593Z,95015.1
2022-08-19T01:19:01.055Z,95017.1
2022-08-19T01:20:03.253Z,95019.9
2022-08-19T01:21:05.728Z,95024.5
2022-08-19T01:23:12.925Z,95023.2
2022-08-19T01:24:15.400Z,95031.3
2022-08-19T01:25:18.081Z,95033.6
2022-08-19T01:26:21.767Z,95029.5
2022-08-19T01:27:26.173Z,95030.4
2022-08-19T01:29:38.247Z,95026.5
2022-08-19T01:31:51.214Z,95029.3
2022-08-19T01:32:54.268Z,95032.8
2022-08-19T01:33:57.130Z,95034.6
2022-08-19T01:34:59.073Z,95038.9
2022-08-19T01:36:01.578Z,95044.4
2022-08-19T01:37:06.564Z,95050.1
2022-08-19T01:39:16.314Z,95051.8
2022-08-19T01:40:19.101Z,95060.4
2022-08-19T01:41:21.599Z,95052
2022-08-19T01:43:28.800Z,95049.3
2022-08-19T01:44:31.271Z,95048.6
2022-08-19T01:45:33.738Z,95049.8
2022-08-19T01:46:35.973Z,95052.5
2022-08-19T01:47:38.169Z,95057.6
2022-08-19T01:48:40.647Z,95061
2022-08-19T01:49:43.131Z,95063.3
2022-08-19T01:50:45.653Z,95067.3
2022-08-19T01:51:47.841Z,95071
2022-08-19T01:53:55.326Z,95073.5
2022-08-19T01:54:57.815Z,95075.7
2022-08-19T01:56:00.010Z,95074.5
2022-08-19T01:57:02.486Z,95076.5
2022-08-19T01:58:04.966Z,95074.4
2022-08-19T01:59:07.465Z,95072.6
2022-08-19T02:00:09.098Z,95069.5
2022-08-19T02:01:11.606Z,95064.3
2022-08-19T02:02:14.123Z,95058.2
2022-08-19T02:03:16.331Z,95056.8
2022-08-19T02:04:18.794Z,95055.2
2022-08-19T02:05:20.723Z,95057.1
2022-08-19T02:07:28.186Z,95055
2022-08-19T02:08:30.677Z,95056
2022-08-19T02:09:33.142Z,95057.2
2022-08-19T02:10:35.620Z,95061.6
2022-08-19T02:11:37.818Z,95062.2
2022-08-19T02:12:40.290Z,95060.9
2022-08-19T02:13:43.824Z,95059.6
2022-08-19T02:14:46.325Z,95063
2022-08-19T02:15:48.805Z,95067.5
2022-08-19T02:16:51.307Z,95060.3
2022-08-19T02:17:53.508Z,95065
2022-08-19T02:18:55.721Z,95064.5
2022-08-19T02:19:57.922Z,95069.3
2022-08-19T02:20:59.870Z,95070.1
2022-08-19T02:22:02.352Z,95066.6
2022-08-19T02:23:04.281Z,95073.2
2022-08-19T02:24:06.744Z,95075
2022-08-19T02:25:09.220Z,95075.4
2022-08-19T02:26:11.408Z,95079.8
2022-08-19T02:27:13.882Z,95080.4
2022-08-19T02:29:21.068Z,95082.1
2022-08-19T02:30:23.546Z,95080.7
2022-08-19T02:31:27.040Z,95084.7
2022-08-19T02:32:29.242Z,95081.9
2022-08-19T02:33:31.416Z,95081.1
2022-08-19T02:34:33.893Z,95082.2
2022-08-19T02:35:36.357Z,95081.3
2022-08-19T02:37:43.534Z,95077.7
2022-08-19T02:39:50.684Z,95073.6
2022-08-19T02:40:53.397Z,95068.8
2022-08-19T02:41:55.610Z,95068.9
2022-08-19T02:42:57.790Z,95067.2
2022-08-19T02:45:05.259Z,95046.2
2022-08-19T02:46:07.736Z,95042.1
2022-08-19T02:47:09.927Z,95035.1
2022-08-19T02:49:16.836Z,95018.5
2022-08-19T02:50:19.628Z,95011.6
2022-08-19T02:51:22.106Z,95006.4
2022-08-19T02:52:24.325Z,95004.7
2022-08-19T02:53:26.516Z,95006.6
2022-08-19T02:54:28.538Z,95008.2
2022-08-19T02:55:30.729Z,95008.4
2022-08-19T02:56:37.187Z,95006.6
2022-08-19T02:57:39.112Z,95006.6
2022-08-19T02:58:41.595Z,95005.5
2022-08-19T02:59:45.005Z,95005
2022-08-19T03:00:47.476Z,95003.3
2022-08-19T03:01:49.960Z,94997.4
2022-08-19T03:02:54.043Z,94994.3
2022-08-19T03:03:56.821Z,95001.3
2022-08-19T03:04:59.281Z,94999.6
2022-08-19T03:06:01.777Z,95003.8
2022-08-19T03:08:08.688Z,95006
2022-08-19T03:09:10.747Z,95009.9
2022-08-19T03:10:12.942Z,95008.4
2022-08-19T03:11:15.416Z,95014.9
2022-08-19T03:12:17.624Z,95017.8
2022-08-19T03:13:20.116Z,95026.7
2022-08-19T03:14:22.226Z,95030.5
2022-08-19T03:15:24.841Z,95031.2
2022-08-19T03:16:26.807Z,95028.8
2022-08-19T03:17:29.338Z,95030.8
2022-08-19T03:18:31.624Z,95025.2
2022-08-19T03:19:34.460Z,95022.8
2022-08-19T03:20:36.935Z,95023.6
2022-08-19T03:21:39.413Z,95023.5
2022-08-19T03:22:41.883Z,95025.1
2022-08-19T03:23:44.367Z,95031.3
2022-08-19T03:24:46.832Z,95045.4
2022-08-19T03:26:54.304Z,95054.2
2022-08-19T03:27:56.779Z,95055.9
2022-08-19T03:34:28.547Z,95059.9
2022-08-19T03:35:31.022Z,95060.4
2022-08-19T03:36:33.234Z,95056.3
2022-08-19T03:37:35.707Z,95056
2022-08-19T03:38:38.180Z,95051.8
2022-08-19T03:39:40.950Z,95052.4
2022-08-19T03:40:43.526Z,95053.4
2022-08-19T03:41:49.645Z,95053.1
2022-08-19T03:42:57.711Z,95049.1
2022-08-19T03:44:00.189Z,95044.5
2022-08-19T03:45:01.838Z,95041.4
2022-08-19T03:46:04.310Z,95037.9
2022-08-19T03:47:06.791Z,95036.2
2022-08-19T03:48:09.005Z,95036.5
2022-08-19T03:50:17.179Z,95032.2
2022-08-19T03:52:24.646Z,95045.2
2022-08-19T03:53:27.129Z,95046.8
2022-08-19T03:54:29.606Z,95044.8
2022-08-19T03:55:32.083Z,95046.6
2022-08-19T03:56:33.995Z,95042.5
2022-08-19T03:57:35.919Z,95046.8
2022-08-19T03:58:38.396Z,95040.9
2022-08-19T03:59:40.594Z,95040.9
2022-08-19T04:00:42.811Z,95027.5
2022-08-19T04:01:45.192Z,95036.6
2022-08-19T04:04:58.212Z,95030.2
2022-08-19T04:06:00.392Z,95025.5
2022-08-19T04:07:02.597Z,95022.5
2022-08-19T04:08:04.798Z,95024.5
2022-08-19T04:09:07.263Z,95027.4
2022-08-19T04:11:14.732Z,95022.7
2022-08-19T04:12:17.222Z,95023.9
2022-08-19T04:13:19.413Z,95023.5
2022-08-19T04:14:21.645Z,95026.9
2022-08-19T04:15:23.270Z,95025.9
2022-08-19T04:17:30.739Z,95031.9
2022-08-19T04:19:37.951Z,95034.3
2022-08-19T04:20:40.429Z,95031.5
2022-08-19T04:21:42.893Z,95031.7
2022-08-19T04:22:45.372Z,95035.9
2022-08-19T04:23:49.336Z,95031.3
2022-08-19T04:24:57.436Z,95037.7
2022-08-19T04:25:59.632Z,95041
2022-08-19T04:27:01.833Z,95035.3
2022-08-19T04:28:03.725Z,95041.6
2022-08-19T04:30:11.409Z,95046.3
2022-08-19T04:31:13.901Z,95047.5
2022-08-19T04:32:16.096Z,95049.8
2022-08-19T04:34:23.013Z,95051.9
2022-08-19T04:35:26.517Z,95055.2
2022-08-19T04:36:29.024Z,95058
2022-08-19T04:38:36.497Z,95068.1
2022-08-19T04:39:38.888Z,95073.1
2022-08-19T04:40:41.407Z,95072.2
2022-08-19T04:41:43.881Z,95071.1
2022-08-19T04:42:46.348Z,95076.6
2022-08-19T04:43:48.824Z,95074.6
2022-08-19T04:44:55.376Z,95084.6
2022-08-19T04:49:16.646Z,95082
2022-08-19T04:50:21.338Z,95081.3
2022-08-19T04:51:23.264Z,95079.6
2022-08-19T04:52:26.461Z,95078.7
2022-08-19T04:53:28.936Z,95077.8
2022-08-19T04:56:41.434Z,95085.1
2022-08-19T04:57:43.651Z,95092.3
2022-08-19T04:58:46.122Z,95086.8
2022-08-19T04:59:48.328Z,95092.9
2022-08-19T05:00:51.007Z,95089.2
2022-08-19T05:01:53.346Z,95088.9
2022-08-19T05:02:56.359Z,95089.8
2022-08-19T05:03:58.831Z,95083.7
2022-08-19T05:05:01.299Z,95093.1
2022-08-19T05:06:03.499Z,95096
2022-08-19T05:07:05.964Z,95096.4
2022-08-19T05:08:08.176Z,95096.7
2022-08-19T05:09:10.942Z,95104
2022-08-19T05:10:13.419Z,95109.6
2022-08-19T05:11:15.883Z,95114.6
2022-08-19T05:12:18.138Z,95111.8
2022-08-19T05:13:20.340Z,95114.3
2022-08-19T05:14:22.831Z,95114.9
2022-08-19T05:15:25.298Z,95113.5
2022-08-19T05:16:27.777Z,95112.6
2022-08-19T05:18:35.237Z,95106
2022-08-19T05:19:37.723Z,95099.8
2022-08-19T05:20:40.188Z,95099.4
2022-08-19T05:21:42.115Z,95098.8
2022-08-19T05:22:44.597Z,95103.3
2022-08-19T05:23:46.797Z,95100.1
2022-08-19T05:25:54.360Z,95098.7
2022-08-19T05:26:56.571Z,95097.2
2022-08-19T05:27:58.492Z,95096.8
2022-08-19T05:29:01.722Z,95094.6
2022-08-19T05:30:04.725Z,95093
2022-08-19T05:31:07.208Z,95095.2
2022-08-19T05:32:09.696Z,95093.3
2022-08-19T05:33:12.183Z,95095.9
2022-08-19T05:35:19.654Z,95085.4
2022-08-19T05:36:22.135Z,95081.9
2022-08-19T05:37:24.389Z,95079.7
2022-08-19T05:38:26.302Z,95076.4
2022-08-19T05:39:28.794Z,95082.5
2022-08-19T05:40:30.845Z,95078.9
2022-08-19T05:41:33.321Z,95081.8
2022-08-19T05:42:39.516Z,95082.7
2022-08-19T05:43:41.730Z,95081.7
2022-08-19T05:44:44.222Z,95079.5
2022-08-19T05:45:45.894Z,95079.2
2022-08-19T05:46:48.080Z,95074.9
2022-08-19T05:47:50.279Z,95074.1
2022-08-19T05:49:57.754Z,95067.5
2022-08-19T05:51:00.299Z,95066.6
2022-08-19T05:52:02.782Z,95067.9
2022-08-19T05:53:04.721Z,95063
2022-08-19T05:54:06.912Z,95068.3
2022-08-19T05:55:09.162Z,95066.8
2022-08-19T05:56:11.647Z,95074.9
2022-08-19T05:57:14.856Z,95076.2
2022-08-19T05:58:17.329Z,95074
2022-08-19T05:59:26.429Z,95074.7
2022-08-19T06:00:29.056Z,95079.4
2022-08-19T06:01:31.266Z,95082.1
2022-08-19T06:02:33.681Z,95077.7
2022-08-19T06:03:36.251Z,95087.8
2022-08-19T06:04:38.735Z,95090.6
2022-08-19T06:06:46.194Z,95088.9
2022-08-19T06:07:48.743Z,95082.2
2022-08-19T06:08:51.385Z,95084.9
2022-08-19T06:10:58.863Z,95082.9
2022-08-19T06:12:01.348Z,95084
2022-08-19T06:13:03.551Z,95084
2022-08-19T06:14:05.785Z,95084.7
2022-08-19T06:15:07.975Z,95085.3
2022-08-19T06:16:10.477Z,95091.2
2022-08-19T06:17:12.936Z,95094.4
2022-08-19T06:18:15.122Z,95100.6
2022-08-19T06:19:17.331Z,95102.1
2022-08-19T06:21:24.805Z,95104
2022-08-19T06:22:27.015Z,95108.6
2022-08-19T06:23:29.211Z,95105.2
2022-08-19T06:24:31.450Z,95104.7
2022-08-19T06:25:33.937Z,95106.5
2022-08-19T06:26:36.625Z,95106.6
2022-08-19T06:28:44.194Z,95108.1
2022-08-19T06:29:46.670Z,95108.8
2022-08-19T06:30:49.143Z,95113.2
2022-08-19T06:31:51.343Z,95110
2022-08-19T06:32:54.494Z,95104.9
2022-08-19T06:33:57.248Z,95105.9
2022-08-19T06:34:59.442Z,95106
2022-08-19T06:36:01.654Z,95105.6
2022-08-19T06:37:04.155Z,95103.8
2022-08-19T06:38:06.639Z,95105.3
2022-08-19T06:39:09.107Z,95105.2
2022-08-19T06:40:11.898Z,95104.9
2022-08-19T06:41:14.449Z,95105.4
2022-08-19T06:44:32.942Z,95104.9
2022-08-19T06:46:43.039Z,95104.3
2022-08-19T06:47:50.309Z,95101.8
2022-08-19T06:48:53.379Z,95101.6
2022-08-19T06:51:01.629Z,95102.8
2022-08-19T06:52:08.582Z,95104.5
2022-08-19T06:53:15.873Z,95102.8
2022-08-19T06:55:22.814Z,95104.7
2022-08-19T06:56:26.592Z,95104.7
2022-08-19T06:57:29.065Z,95101.4
2022-08-19T06:58:33.063Z,95096.6
2022-08-19T06:59:35.262Z,95096.8
2022-08-19T07:00:37.854Z,95096.4
2022-08-19T07:01:40.327Z,95095.5
2022-08-19T07:03:51.421Z,95094.7
2022-08-19T07:04:54.598Z,95091.9
2022-08-19T07:05:57.136Z,95094.5
2022-08-19T07:08:06.645Z,95088.9
2022-08-19T07:09:09.490Z,95086.9
2022-08-19T07:10:13.395Z,95083.3
2022-08-19T07:11:16.412Z,95082.1
2022-08-19T07:13:24.931Z,95076.5
2022-08-19T07:14:27.167Z,95078.3
2022-08-19T07:15:30.605Z,95079.3
2022-08-19T07:16:33.088Z,95078.8
2022-08-19T07:17:35.843Z,95079.4
2022-08-19T07:19:47.754Z,95071.7
2022-08-19T07:20:51.319Z,95071.4
2022-08-19T07:21:54.912Z,95064
2022-08-19T07:22:58.335Z,95060.4
2022-08-19T07:25:06.314Z,95061.6
2022-08-19T07:26:10.170Z,95059
2022-08-19T07:31:39.369Z,95056
2022-08-19T07:32:41.866Z,95062.2
2022-08-19T07:33:44.969Z,95054.8
2022-08-19T07:34:51.567Z,95058.1
2022-08-19T07:35:54.081Z,95057.6
2022-08-19T07:36:56.284Z,95057
2022-08-19T07:37:58.766Z,95056
2022-08-19T07:39:00.967Z,95052.4
2022-08-19T07:40:04.007Z,95051.6
2022-08-19T07:41:06.299Z,95055.3
2022-08-19T07:42:08.503Z,95054.2
2022-08-19T07:44:15.967Z,95055.7
2022-08-19T07:45:18.453Z,95058.1
2022-08-19T07:46:20.930Z,95055.2
2022-08-19T07:48:28.410Z,95060.2
2022-08-19T07:49:30.620Z,95058.9
2022-08-19T07:50:33.094Z,95062
2022-08-19T07:52:40.808Z,95061.4
2022-08-19T07:53:43.333Z,95065
2022-08-19T07:54:45.817Z,95066.2
2022-08-19T07:55:47.750Z,95070.4
2022-08-19T07:57:55.212Z,95071.9
2022-08-19T07:58:57.832Z,95069.1
2022-08-19T08:00:00.388Z,95068.1
2022-08-19T08:01:02.596Z,95071.9
2022-08-19T08:02:05.442Z,95071.3
2022-08-19T08:03:08.077Z,95071
2022-08-19T08:04:10.004Z,95065.9
2022-08-19T08:05:12.218Z,95067.6
2022-08-19T08:06:15.928Z,95065.9
2022-08-19T08:07:18.402Z,95072.4
2022-08-19T08:08:20.876Z,95073
2022-08-19T08:09:27.346Z,95070
2022-08-19T08:10:30.359Z,95073.6
2022-08-19T08:12:40.552Z,95074.9
2022-08-19T08:13:42.764Z,95079.7
2022-08-19T08:16:56.136Z,95087.1
2022-08-19T08:18:03.202Z,95089.2
2022-08-19T08:20:10.739Z,95092.7
2022-08-19T08:21:12.946Z,95090.9
2022-08-19T08:22:15.154Z,95092.4
2022-08-19T08:23:17.380Z,95090.7
2022-08-19T08:24:19.587Z,95088.4
2022-08-19T08:25:22.965Z,95085
2022-08-19T08:26:25.166Z,95083.2
2022-08-19T08:27:28.646Z,95082.3
2022-08-19T08:28:35.120Z,95083.2
2022-08-19T08:29:37.608Z,95084.5
2022-08-19T08:31:46.087Z,95092.5
2022-08-19T08:32:53.061Z,95091.4
2022-08-19T08:33:55.563Z,95089.9
2022-08-19T08:34:57.765Z,95089.3
2022-08-19T08:36:00.255Z,95090.8
2022-08-19T08:37:02.450Z,95098.1
2022-08-19T08:38:04.675Z,95097.6
2022-08-19T08:39:06.932Z,95100.2
2022-08-19T08:41:14.163Z,95096.5
2022-08-19T08:43:21.541Z,95093.2
2022-08-19T08:44:26.625Z,95093.9
2022-08-19T08:46:34.232Z,95102.1
2022-08-19T08:48:42.612Z,95111.5
2022-08-19T08:50:54.579Z,95116.1
2022-08-19T08:53:02.442Z,95116.4
2022-08-19T08:54:05.074Z,95114.9
2022-08-19T08:56:13.993Z,95112.1
2022-08-19T08:57:20.207Z,95112
2022-08-19T08:58:23.378Z,95119.3
2022-08-19T08:59:25.887Z,95120.7
2022-08-19T09:00:28.389Z,95115.7
2022-08-19T09:01:31.876Z,95122.5
2022-08-19T09:02:34.460Z,95123.9
2022-08-19T09:03:37.195Z,95125.9
2022-08-19T09:04:39.395Z,95120.9
2022-08-19T09:06:47.583Z,95128.6
2022-08-19T09:07:52.159Z,95128.3
2022-08-19T09:10:00.954Z,95126.1
2022-08-19T09:13:13.961Z,95129.2
2022-08-19T09:17:30.895Z,95127.1
2022-08-19T09:18:33.380Z,95124.8
2022-08-19T09:19:35.602Z,95128.5
2022-08-19T09:21:43.148Z,95127.3
2022-08-19T09:22:48.406Z,95121.2
2022-08-19T09:23:53.120Z,95122.2
2022-08-19T09:24:55.357Z,95122.5
2022-08-19T09:25:59.974Z,95118
2022-08-19T09:29:12.473Z,95113.2
2022-08-19T09:30:14.886Z,95113
2022-08-19T09:31:17.822Z,95112
2022-08-19T09:33:25.027Z,95113.6
2022-08-19T09:34:27.857Z,95111.8
2022-08-19T09:35:30.278Z,95115.6
2022-08-19T09:38:45.163Z,95125.6
2022-08-19T09:39:47.253Z,95128.3
2022-08-19T09:40:52.536Z,95123.3
2022-08-19T09:43:01.712Z,95123.5
2022-08-19T09:45:14.300Z,95121
2022-08-19T09:48:26.981Z,95119.3
2022-08-19T09:49:30.225Z,95122.8
2022-08-19T09:51:41.562Z,95123.9
2022-08-19T09:54:54.872Z,95128
2022-08-19T09:55:57.351Z,95130
2022-08-19T09:56:59.880Z,95127.9
2022-08-19T09:58:06.910Z,95131
2022-08-19T09:59:09.401Z,95128.4
2022-08-19T10:00:11.077Z,95126.6
2022-08-19T10:01:13.880Z,95126.6
2022-08-19T10:04:26.962Z,95129
2022-08-19T10:05:32.147Z,95129.9
2022-08-19T10:07:39.702Z,95135.6
2022-08-19T10:09:48.206Z,95140.3
2022-08-19T10:10:50.717Z,95136.7
2022-08-19T10:12:58.188Z,95134.4
2022-08-19T10:14:00.735Z,95132.3
2022-08-19T10:15:03.235Z,95129.7
2022-08-19T10:16:05.750Z,95129.7
2022-08-19T10:18:13.241Z,95129.6
2022-08-19T10:20:21.615Z,95125.8
2022-08-19T10:22:28.822Z,95125.3
2022-08-19T10:23:38.283Z,95122.2
2022-08-19T10:25:45.495Z,95123.6
2022-08-19T10:27:58.401Z,95117
2022-08-19T10:29:00.605Z,95116.6
2022-08-19T10:30:03.719Z,95113
2022-08-19T10:31:10.468Z,95113.6
2022-08-19T10:35:28.397Z,95120.6
2022-08-19T10:39:51.061Z,95120.3
2022-08-19T10:40:54.352Z,95118.2
2022-08-19T10:41:57.590Z,95116.2
2022-08-19T10:43:00.083Z,95116.5
2022-08-19T10:45:08.387Z,95116
2022-08-19T10:48:23.011Z,95114.3
2022-08-19T10:49:25.328Z,95111
2022-08-19T10:51:32.551Z,95111
2022-08-19T10:53:42.440Z,95106
2022-08-19T10:54:44.635Z,95107.9
2022-08-19T10:55:46.875Z,95107.1
2022-08-19T10:56:49.088Z,95106
2022-08-19T10:58:56.554Z,95109
2022-08-19T10:59:59.032Z,95108.5
2022-08-19T11:01:01.324Z,95111.6
2022-08-19T11:02:03.667Z,95116.2
2022-08-19T11:03:06.169Z,95113.3
2022-08-19T11:04:13.127Z,95117.5
2022-08-19T11:05:15.939Z,95115.1
2022-08-19T11:06:18.007Z,95111.6
2022-08-19T11:07:20.485Z,95112.1
2022-08-19T11:10:32.700Z,95109.3
2022-08-19T11:12:39.898Z,95111
2022-08-19T11:13:42.099Z,95109.3
2022-08-19T11:14:44.565Z,95106.6
2022-08-19T11:15:46.758Z,95107.3
2022-08-19T11:16:48.957Z,95105.9
2022-08-19T11:17:51.343Z,95108.9
2022-08-19T11:18:53.807Z,95106.7
2022-08-19T11:19:56.289Z,95109.7
2022-08-19T11:20:58.767Z,95110.2
2022-08-19T11:22:04.151Z,95108.4
2022-08-19T11:23:06.632Z,95110.8
2022-08-19T11:24:09.116Z,95108.8
2022-08-19T11:25:11.543Z,95109
2022-08-19T11:26:14.109Z,95106.3
2022-08-19T11:27:16.586Z,95104.6
2022-08-19T11:28:19.062Z,95108.4
2022-08-19T11:29:21.272Z,95106
2022-08-19T11:30:23.468Z,95101.8
2022-08-19T11:32:30.939Z,95101.7
2022-08-19T11:33:33.161Z,95101.8
2022-08-19T11:34:35.210Z,95106.3
2022-08-19T11:35:36.870Z,95107.1
2022-08-19T11:36:39.079Z,95112.7
2022-08-19T11:37:41.273Z,95112
2022-08-19T11:38:43.754Z,95110.1
2022-08-19T11:40:51.250Z,95117.3
2022-08-19T11:41:53.747Z,95114.6
2022-08-19T11:42:55.377Z,95116.4
2022-08-19T11:43:57.387Z,95112.8
2022-08-19T11:44:59.590Z,95119
2022-08-19T11:46:01.793Z,95114.1
2022-08-19T11:48:09.277Z,95118.9
2022-08-19T11:50:16.487Z,95111.8
2022-08-19T11:51:18.964Z,95109
2022-08-19T11:52:21.440Z,95109.6
2022-08-19T11:53:23.679Z,95110.3
2022-08-19T11:54:26.184Z,95106.4
2022-08-19T11:55:28.390Z,95112.5
2022-08-19T11:56:30.867Z,95110
2022-08-19T11:57:32.832Z,95111.3
2022-08-19T11:58:35.326Z,95110.6
2022-08-19T11:59:37.812Z,95113.8
2022-08-19T12:01:46.202Z,95118.8
2022-08-19T12:02:48.695Z,95119
2022-08-19T12:03:51.641Z,95124.9
2022-08-19T12:04:53.993Z,95120.5
2022-08-19T12:05:55.946Z,95125.8
2022-08-19T12:06:58.144Z,95129.6
2022-08-19T12:08:00.093Z,95124.6
2022-08-19T12:09:02.279Z,95133.2
2022-08-19T12:10:05.410Z,95129.2
2022-08-19T12:11:07.886Z,95128.7
2022-08-19T12:12:09.788Z,95129.3
2022-08-19T12:13:11.990Z,95127.7
2022-08-19T12:14:17.411Z,95127.2
2022-08-19T12:15:21.448Z,95126.7
2022-08-19T12:16:23.918Z,95126.6
2022-08-19T12:17:26.156Z,95124.1
2022-08-19T12:18:28.353Z,95129.4
2022-08-19T12:19:30.283Z,95126
2022-08-19T12:21:40.379Z,95127.5
2022-08-19T12:22:42.876Z,95130.3
2022-08-19T12:23:45.354Z,95136.6
2022-08-19T12:24:47.554Z,95134.8
2022-08-19T12:25:49.754Z,95138.5
2022-08-19T12:28:00.079Z,95143.3
2022-08-19T12:29:02.938Z,95138.4
2022-08-19T12:30:05.407Z,95140.2
2022-08-19T12:31:07.636Z,95142.6
2022-08-19T12:33:15.103Z,95141.7
2022-08-19T12:34:17.597Z,95135.8
2022-08-19T12:36:25.474Z,95135.6
2022-08-19T12:37:27.692Z,95143
2022-08-19T12:38:29.896Z,95141.7
2022-08-19T12:39:32.296Z,95140.2
2022-08-19T12:40:34.866Z,95149
2022-08-19T12:42:42.041Z,95146.1
2022-08-19T12:43:44.530Z,95152.3
2022-08-19T12:44:46.998Z,95149.9
2022-08-19T12:45:49.497Z,95148
2022-08-19T12:47:57.895Z,95145.9
2022-08-19T12:51:10.385Z,95141.2
2022-08-19T12:53:18.078Z,95138
2022-08-19T12:54:20.012Z,95141.7
2022-08-19T12:55:22.540Z,95148.3
2022-08-19T12:56:24.747Z,95142.6
2022-08-19T12:58:32.210Z,95151.8
2022-08-19T12:59:34.419Z,95150.8
2022-08-19T13:00:37.112Z,95145.8
2022-08-19T13:01:39.667Z,95145.8
2022-08-19T13:02:41.863Z,95152.8
2022-08-19T13:03:44.345Z,95155.9
2022-08-19T13:04:46.557Z,95147
2022-08-19T13:05:49.046Z,95149.7
2022-08-19T13:06:51.241Z,95150.8
2022-08-19T13:07:54.379Z,95155.4
2022-08-19T13:10:02.171Z,95157.4
2022-08-19T13:11:04.357Z,95157.4
2022-08-19T13:12:06.570Z,95153.6
2022-08-19T13:13:09.046Z,95153.2
2022-08-19T13:14:11.270Z,95155.7
2022-08-19T13:16:19.229Z,95152.3
2022-08-19T13:17:21.434Z,95151.3
2022-08-19T13:18:24.716Z,95158.2
2022-08-19T13:19:27.201Z,95150.3
2022-08-19T13:20:29.716Z,95155.8
2022-08-19T13:21:31.642Z,95153.6
2022-08-19T13:22:34.115Z,95149.8
2022-08-19T13:23:36.314Z,95153.5
2022-08-19T13:24:38.819Z,95156.4
2022-08-19T13:26:50.815Z,95145.4
2022-08-19T13:27:53.867Z,95148.4
2022-08-19T13:28:56.129Z,95144.5
2022-08-19T13:29:57.818Z,95143.6
2022-08-19T13:31:00.310Z,95147
2022-08-19T13:32:04.343Z,95143.1
2022-08-19T13:33:06.518Z,95142.8
2022-08-19T13:34:08.458Z,95139.7
2022-08-19T13:36:18.056Z,95134.3
2022-08-19T13:37:20.544Z,95138.4
2022-08-19T13:38:22.747Z,95143.4
2022-08-19T13:39:26.013Z,95133.8
2022-08-19T13:40:28.210Z,95134.2
2022-08-19T13:41:30.415Z,95139.6
2022-08-19T13:42:32.898Z,95136.4
2022-08-19T13:43:35.110Z,95134.7
2022-08-19T13:44:37.290Z,95142.4
2022-08-19T13:45:39.766Z,95137.2
2022-08-19T13:46:41.991Z,95139.6
2022-08-19T13:47:44.204Z,95134.5
2022-08-19T13:48:46.676Z,95138.5
2022-08-19T13:49:49.155Z,95136.8
2022-08-19T13:50:51.358Z,95137.9
2022-08-19T13:51:53.331Z,95137.9
2022-08-19T13:52:55.817Z,95151.5
2022-08-19T13:53:57.734Z,95141.7
2022-08-19T13:54:59.951Z,95146.5
2022-08-19T13:56:02.156Z,95143.9
2022-08-19T13:57:04.640Z,95143.2
2022-08-19T13:58:06.835Z,95141.1
2022-08-19T13:59:09.032Z,95143.8
2022-08-19T14:00:11.514Z,95137
2022-08-19T14:01:14.031Z,95133.2
2022-08-19T14:02:16.656Z,95137.4
2022-08-19T14:03:18.862Z,95134.2
2022-08-19T14:04:20.804Z,95130.7
2022-08-19T14:05:23.020Z,95131
2022-08-19T14:06:25.522Z,95132.4
2022-08-19T14:07:28.008Z,95134.3
2022-08-19T14:08:30.489Z,95136.6
2022-08-19T14:09:32.990Z,95137.3
2022-08-19T14:10:35.219Z,95138.9
2022-08-19T14:11:37.686Z,95142.4
2022-08-19T14:12:39.895Z,95140.1
2022-08-19T14:13:42.366Z,95137.8
2022-08-19T14:14:44.874Z,95141
2022-08-19T14:15:47.091Z,95141.5
2022-08-19T14:16:49.298Z,95138.8
2022-08-19T14:17:51.451Z,95138.9
2022-08-19T14:18:53.936Z,95134.5
2022-08-19T14:19:56.146Z,95137.8
2022-08-19T14:21:00.395Z,95134.1
2022-08-19T14:22:02.594Z,95137.3
2022-08-19T14:23:04.820Z,95140.2
2022-08-19T14:24:07.020Z,95145.2
2022-08-19T14:25:09.500Z,95142.3
2022-08-19T14:26:11.697Z,95150.2
2022-08-19T14:27:14.762Z,95154.7
2022-08-19T14:28:16.976Z,95149.7
2022-08-19T14:29:19.212Z,95155.8
2022-08-19T14:30:21.431Z,95154.5
2022-08-19T14:32:29.614Z,95157.5
2022-08-19T14:33:32.197Z,95154.1
2022-08-19T14:34:34.138Z,95161.3
2022-08-19T14:35:36.670Z,95162.7
2022-08-19T14:36:40.799Z,95161.8
2022-08-19T14:38:48.271Z,95167.6
2022-08-19T14:39:50.663Z,95167.7
2022-08-19T14:41:59.938Z,95170.3
2022-08-19T14:43:03.301Z,95171.2
2022-08-19T14:44:05.791Z,95169.3
2022-08-19T14:45:08.290Z,95170.9
2022-08-19T14:46:12.025Z,95172
2022-08-19T14:47:15.628Z,95169.6
2022-08-19T14:50:28.092Z,95169.8
2022-08-19T14:51:30.020Z,95175.1
2022-08-19T14:52:34.514Z,95173.2
2022-08-19T14:53:36.818Z,95177.1
2022-08-19T14:54:39.030Z,95174.8
2022-08-19T14:55:43.021Z,95174.4
2022-08-19T14:56:45.496Z,95171.2
2022-08-19T14:57:47.945Z,95171.6
2022-08-19T14:58:50.236Z,95173
2022-08-19T14:59:52.783Z,95173
2022-08-19T15:00:55.286Z,95164.8
2022-08-19T15:01:58.095Z,95172.2
2022-08-19T15:03:04.824Z,95168.3
2022-08-19T15:04:07.018Z,95172.1
2022-08-19T15:05:09.212Z,95173.2
2022-08-19T15:07:16.690Z,95173.8
2022-08-19T15:08:19.177Z,95167.4
2022-08-19T15:09:21.654Z,95173
2022-08-19T15:10:24.142Z,95171.3
2022-08-19T15:11:26.609Z,95169.9
2022-08-19T15:12:28.810Z,95168.1
2022-08-19T15:13:31.314Z,95168.8
2022-08-19T15:14:34.108Z,95168.3
2022-08-19T15:15:36.575Z,95169.4
2022-08-19T15:16:39.077Z,95170.9
2022-08-19T15:18:46.395Z,95175.8
2022-08-19T15:19:50.101Z,95173.9
2022-08-19T15:20:53.690Z,95178.3
2022-08-19T15:21:55.560Z,95178.3
2022-08-19T15:22:58.036Z,95180.9
2022-08-19T15:23:59.971Z,95184.4
2022-08-19T15:25:02.972Z,95179.9
2022-08-19T15:26:06.483Z,95184.2